sensor_id;sensor_type;location;lat;lon;timestamp;P1;durP1;ratioP1;P2;durP2;ratioP2
11185;SDS011;5649;52.422;13.754;2022-12-07T00:01:31;3.13;;;2.80;;
11185;SDS011;5649;52.422;13.754;2022-12-07T00:03:58;5.40;;;2.73;;
11185;SDS011;5649;52.422;13.754;2022-12-07T00:06:31;5.70;;;2.80;;
11185;SDS011;5649;52.422;13.754;2022-12-07T00:08:57;8.27;;;3.00;;
11185;SDS011;5649;52.422;13.754;2022-12-07T00:11:24;6.23;;;2.40;;
11185;SDS011;5649;52.422;13.754;2022-12-07T00:13:53;11.27;;;4.03;;
11185;SDS011;5649;52.422;13.754;2022-12-07T00:16:21;5.37;;;3.50;;
11185;SDS011;5649;52.422;13.754;2022-12-07T00:18:47;5.63;;;4.00;;
11185;SDS011;5649;52.422;13.754;2022-12-07T00:21:14;9.27;;;4.13;;
11185;SDS011;5649;52.422;13.754;2022-12-07T00:23:41;4.63;;;3.23;;
11185;SDS011;5649;52.422;13.754;2022-12-07T00:26:11;4.40;;;3.27;;
11185;SDS011;5649;52.422;13.754;2022-12-07T00:28:37;6.70;;;3.67;;
11185;SDS011;5649;52.422;13.754;2022-12-07T00:31:07;5.13;;;3.50;;
11185;SDS011;5649;52.422;13.754;2022-12-07T00:33:34;5.43;;;3.60;;
11185;SDS011;5649;52.422;13.754;2022-12-07T00:36:00;4.97;;;2.87;;
11185;SDS011;5649;52.422;13.754;2022-12-07T00:38:28;5.83;;;3.10;;
11185;SDS011;5649;52.422;13.754;2022-12-07T00:41:27;7.20;;;4.43;;
11185;SDS011;5649;52.422;13.754;2022-12-07T00:43:47;6.57;;;3.93;;
11185;SDS011;5649;52.422;13.754;2022-12-07T00:46:13;5.70;;;3.90;;
11185;SDS011;5649;52.422;13.754;2022-12-07T00:48:40;8.70;;;4.47;;
11185;SDS011;5649;52.422;13.754;2022-12-07T00:51:06;7.20;;;4.00;;
11185;SDS011;5649;52.422;13.754;2022-12-07T00:53:36;5.60;;;3.83;;
11185;SDS011;5649;52.422;13.754;2022-12-07T00:56:09;8.70;;;4.40;;
11185;SDS011;5649;52.422;13.754;2022-12-07T00:58:35;4.40;;;3.90;;
11185;SDS011;5649;52.422;13.754;2022-12-07T01:01:02;6.50;;;3.33;;
11185;SDS011;5649;52.422;13.754;2022-12-07T01:03:28;6.00;;;3.40;;
11185;SDS011;5649;52.422;13.754;2022-12-07T01:05:55;3.43;;;3.10;;
11185;SDS011;5649;52.422;13.754;2022-12-07T01:08:22;7.87;;;3.97;;
11185;SDS011;5649;52.422;13.754;2022-12-07T01:10:48;5.80;;;3.80;;
11185;SDS011;5649;52.422;13.754;2022-12-07T01:13:15;6.87;;;4.03;;
11185;SDS011;5649;52.422;13.754;2022-12-07T01:15:41;4.77;;;3.87;;
11185;SDS011;5649;52.422;13.754;2022-12-07T01:18:08;5.93;;;3.40;;
11185;SDS011;5649;52.422;13.754;2022-12-07T01:20:34;6.17;;;3.17;;
11185;SDS011;5649;52.422;13.754;2022-12-07T01:23:00;4.00;;;3.00;;
11185;SDS011;5649;52.422;13.754;2022-12-07T01:25:26;5.87;;;3.27;;
11185;SDS011;5649;52.422;13.754;2022-12-07T01:27:52;4.73;;;3.40;;
11185;SDS011;5649;52.422;13.754;2022-12-07T01:30:18;5.40;;;2.90;;
11185;SDS011;5649;52.422;13.754;2022-12-07T01:32:44;5.07;;;3.27;;
11185;SDS011;5649;52.422;13.754;2022-12-07T01:35:10;2.67;;;2.47;;
11185;SDS011;5649;52.422;13.754;2022-12-07T01:37:37;6.90;;;3.37;;
11185;SDS011;5649;52.422;13.754;2022-12-07T01:40:07;3.60;;;2.90;;
11185;SDS011;5649;52.422;13.754;2022-12-07T01:42:34;5.60;;;2.90;;
11185;SDS011;5649;52.422;13.754;2022-12-07T01:45:42;4.50;;;2.70;;
11185;SDS011;5649;52.422;13.754;2022-12-07T01:47:51;4.03;;;2.60;;
11185;SDS011;5649;52.422;13.754;2022-12-07T01:50:18;4.43;;;2.93;;
11185;SDS011;5649;52.422;13.754;2022-12-07T01:52:45;3.77;;;2.40;;
11185;SDS011;5649;52.422;13.754;2022-12-07T01:55:13;8.23;;;3.20;;
11185;SDS011;5649;52.422;13.754;2022-12-07T01:57:41;5.40;;;3.50;;
11185;SDS011;5649;52.422;13.754;2022-12-07T02:00:08;6.20;;;3.20;;
11185;SDS011;5649;52.422;13.754;2022-12-07T02:02:36;3.33;;;2.90;;
11185;SDS011;5649;52.422;13.754;2022-12-07T02:05:04;2.70;;;2.50;;
11185;SDS011;5649;52.422;13.754;2022-12-07T02:07:31;7.83;;;2.80;;
11185;SDS011;5649;52.422;13.754;2022-12-07T02:10:11;4.07;;;2.93;;
11185;SDS011;5649;52.422;13.754;2022-12-07T02:12:37;4.67;;;3.63;;
11185;SDS011;5649;52.422;13.754;2022-12-07T02:15:03;4.13;;;2.80;;
11185;SDS011;5649;52.422;13.754;2022-12-07T02:17:37;3.70;;;2.60;;
11185;SDS011;5649;52.422;13.754;2022-12-07T02:28:09;5.47;;;2.97;;
11185;SDS011;5649;52.422;13.754;2022-12-07T02:30:40;4.00;;;2.27;;
11185;SDS011;5649;52.422;13.754;2022-12-07T02:36:17;4.80;;;2.80;;
11185;SDS011;5649;52.422;13.754;2022-12-07T02:40:54;4.63;;;2.90;;
11185;SDS011;5649;52.422;13.754;2022-12-07T02:43:38;2.93;;;2.00;;
11185;SDS011;5649;52.422;13.754;2022-12-07T02:46:09;3.50;;;2.53;;
11185;SDS011;5649;52.422;13.754;2022-12-07T02:48:37;3.73;;;2.53;;
11185;SDS011;5649;52.422;13.754;2022-12-07T02:51:04;2.67;;;1.90;;
11185;SDS011;5649;52.422;13.754;2022-12-07T02:53:31;4.20;;;3.00;;
11185;SDS011;5649;52.422;13.754;2022-12-07T02:55:59;5.43;;;3.60;;
11185;SDS011;5649;52.422;13.754;2022-12-07T03:03:29;4.10;;;3.07;;
11185;SDS011;5649;52.422;13.754;2022-12-07T03:08:33;2.30;;;2.10;;
11185;SDS011;5649;52.422;13.754;2022-12-07T03:11:03;4.00;;;2.40;;
11185;SDS011;5649;52.422;13.754;2022-12-07T03:13:32;3.03;;;2.27;;
11185;SDS011;5649;52.422;13.754;2022-12-07T03:16:10;3.00;;;2.70;;
11185;SDS011;5649;52.422;13.754;2022-12-07T03:18:38;5.70;;;2.93;;
11185;SDS011;5649;52.422;13.754;2022-12-07T03:21:08;4.37;;;2.97;;
11185;SDS011;5649;52.422;13.754;2022-12-07T03:23:35;3.90;;;2.30;;
11185;SDS011;5649;52.422;13.754;2022-12-07T03:26:03;3.60;;;2.70;;
11185;SDS011;5649;52.422;13.754;2022-12-07T03:28:34;3.07;;;2.50;;
11185;SDS011;5649;52.422;13.754;2022-12-07T03:31:09;4.23;;;2.40;;
11185;SDS011;5649;52.422;13.754;2022-12-07T03:34:21;2.87;;;2.07;;
11185;SDS011;5649;52.422;13.754;2022-12-07T03:38:59;1.93;;;1.57;;
11185;SDS011;5649;52.422;13.754;2022-12-07T03:41:27;1.97;;;1.87;;
11185;SDS011;5649;52.422;13.754;2022-12-07T03:43:54;2.97;;;2.40;;
11185;SDS011;5649;52.422;13.754;2022-12-07T03:46:29;2.50;;;1.93;;
11185;SDS011;5649;52.422;13.754;2022-12-07T03:54:14;3.23;;;2.43;;
11185;SDS011;5649;52.422;13.754;2022-12-07T03:56:42;2.17;;;1.97;;
11185;SDS011;5649;52.422;13.754;2022-12-07T03:59:08;4.07;;;2.50;;
11185;SDS011;5649;52.422;13.754;2022-12-07T04:01:35;2.20;;;2.00;;
11185;SDS011;5649;52.422;13.754;2022-12-07T04:04:01;2.57;;;2.27;;
11185;SDS011;5649;52.422;13.754;2022-12-07T04:06:27;2.70;;;2.03;;
11185;SDS011;5649;52.422;13.754;2022-12-07T04:08:53;3.80;;;2.60;;
11185;SDS011;5649;52.422;13.754;2022-12-07T04:11:19;2.57;;;2.33;;
11185;SDS011;5649;52.422;13.754;2022-12-07T04:13:45;3.37;;;3.07;;
11185;SDS011;5649;52.422;13.754;2022-12-07T04:16:30;3.20;;;2.30;;
11185;SDS011;5649;52.422;13.754;2022-12-07T04:18:56;3.30;;;2.20;;
11185;SDS011;5649;52.422;13.754;2022-12-07T04:21:22;3.93;;;1.93;;
11185;SDS011;5649;52.422;13.754;2022-12-07T04:23:48;5.63;;;3.23;;
11185;SDS011;5649;52.422;13.754;2022-12-07T04:26:14;5.03;;;2.83;;
11185;SDS011;5649;52.422;13.754;2022-12-07T04:28:40;5.13;;;2.93;;
11185;SDS011;5649;52.422;13.754;2022-12-07T04:31:06;5.90;;;3.00;;
11185;SDS011;5649;52.422;13.754;2022-12-07T04:33:32;4.57;;;3.70;;
11185;SDS011;5649;52.422;13.754;2022-12-07T04:35:58;7.10;;;2.97;;
11185;SDS011;5649;52.422;13.754;2022-12-07T04:38:24;8.57;;;3.47;;
11185;SDS011;5649;52.422;13.754;2022-12-07T04:40:50;4.37;;;3.10;;
11185;SDS011;5649;52.422;13.754;2022-12-07T04:43:16;3.67;;;2.60;;
11185;SDS011;5649;52.422;13.754;2022-12-07T04:45:47;3.67;;;2.70;;
11185;SDS011;5649;52.422;13.754;2022-12-07T04:48:13;5.67;;;2.87;;
11185;SDS011;5649;52.422;13.754;2022-12-07T04:50:39;3.13;;;2.80;;
11185;SDS011;5649;52.422;13.754;2022-12-07T04:53:08;8.70;;;3.27;;
11185;SDS011;5649;52.422;13.754;2022-12-07T04:55:34;14.80;;;4.27;;
11185;SDS011;5649;52.422;13.754;2022-12-07T04:58:00;4.20;;;3.23;;
11185;SDS011;5649;52.422;13.754;2022-12-07T05:00:27;5.30;;;4.07;;
11185;SDS011;5649;52.422;13.754;2022-12-07T05:02:53;5.97;;;3.60;;
11185;SDS011;5649;52.422;13.754;2022-12-07T05:05:19;4.27;;;3.63;;
11185;SDS011;5649;52.422;13.754;2022-12-07T05:07:45;5.77;;;3.73;;
11185;SDS011;5649;52.422;13.754;2022-12-07T05:10:11;13.33;;;5.10;;
11185;SDS011;5649;52.422;13.754;2022-12-07T05:12:37;7.60;;;4.50;;
11185;SDS011;5649;52.422;13.754;2022-12-07T05:15:03;11.23;;;4.50;;
11185;SDS011;5649;52.422;13.754;2022-12-07T05:17:29;8.00;;;4.80;;
11185;SDS011;5649;52.422;13.754;2022-12-07T05:19:55;8.73;;;4.57;;
11185;SDS011;5649;52.422;13.754;2022-12-07T05:22:21;10.87;;;4.70;;
11185;SDS011;5649;52.422;13.754;2022-12-07T05:24:50;11.27;;;5.30;;
11185;SDS011;5649;52.422;13.754;2022-12-07T05:27:16;9.47;;;5.23;;
11185;SDS011;5649;52.422;13.754;2022-12-07T05:29:42;10.20;;;4.73;;
11185;SDS011;5649;52.422;13.754;2022-12-07T05:32:08;11.97;;;4.87;;
11185;SDS011;5649;52.422;13.754;2022-12-07T05:34:34;9.67;;;5.57;;
11185;SDS011;5649;52.422;13.754;2022-12-07T05:37:00;12.70;;;5.40;;
11185;SDS011;5649;52.422;13.754;2022-12-07T05:39:26;9.80;;;4.70;;
11185;SDS011;5649;52.422;13.754;2022-12-07T05:41:52;11.83;;;5.17;;
11185;SDS011;5649;52.422;13.754;2022-12-07T05:44:37;7.57;;;5.50;;
11185;SDS011;5649;52.422;13.754;2022-12-07T05:47:03;13.47;;;6.17;;
11185;SDS011;5649;52.422;13.754;2022-12-07T05:49:29;9.30;;;5.77;;
11185;SDS011;5649;52.422;13.754;2022-12-07T05:51:55;11.30;;;5.97;;
11185;SDS011;5649;52.422;13.754;2022-12-07T05:54:21;18.37;;;6.60;;
11185;SDS011;5649;52.422;13.754;2022-12-07T05:56:47;11.80;;;6.40;;
11185;SDS011;5649;52.422;13.754;2022-12-07T05:59:13;12.87;;;6.17;;
11185;SDS011;5649;52.422;13.754;2022-12-07T06:01:52;11.57;;;6.30;;
11185;SDS011;5649;52.422;13.754;2022-12-07T06:04:18;14.83;;;6.90;;
11185;SDS011;5649;52.422;13.754;2022-12-07T06:06:45;12.20;;;5.53;;
11185;SDS011;5649;52.422;13.754;2022-12-07T06:09:11;7.03;;;5.10;;
11185;SDS011;5649;52.422;13.754;2022-12-07T06:11:40;12.03;;;6.17;;
11185;SDS011;5649;52.422;13.754;2022-12-07T06:14:25;10.30;;;5.60;;
11185;SDS011;5649;52.422;13.754;2022-12-07T06:16:51;11.63;;;5.50;;
11185;SDS011;5649;52.422;13.754;2022-12-07T06:19:17;9.47;;;6.00;;
11185;SDS011;5649;52.422;13.754;2022-12-07T06:21:43;15.17;;;6.47;;
11185;SDS011;5649;52.422;13.754;2022-12-07T06:24:10;9.30;;;5.40;;
11185;SDS011;5649;52.422;13.754;2022-12-07T06:26:37;14.60;;;7.17;;
11185;SDS011;5649;52.422;13.754;2022-12-07T06:29:03;10.80;;;6.13;;
11185;SDS011;5649;52.422;13.754;2022-12-07T06:31:29;12.97;;;6.90;;
11185;SDS011;5649;52.422;13.754;2022-12-07T06:33:59;13.37;;;7.30;;
11185;SDS011;5649;52.422;13.754;2022-12-07T06:36:25;18.43;;;8.20;;
11185;SDS011;5649;52.422;13.754;2022-12-07T06:38:51;35.53;;;8.70;;
11185;SDS011;5649;52.422;13.754;2022-12-07T06:41:17;38.57;;;12.80;;
11185;SDS011;5649;52.422;13.754;2022-12-07T06:43:43;29.00;;;10.43;;
11185;SDS011;5649;52.422;13.754;2022-12-07T06:46:09;37.03;;;10.93;;
11185;SDS011;5649;52.422;13.754;2022-12-07T06:48:35;58.63;;;11.80;;
11185;SDS011;5649;52.422;13.754;2022-12-07T06:51:01;34.03;;;10.63;;
11185;SDS011;5649;52.422;13.754;2022-12-07T06:53:27;42.67;;;12.33;;
11185;SDS011;5649;52.422;13.754;2022-12-07T06:55:53;21.73;;;7.90;;
11185;SDS011;5649;52.422;13.754;2022-12-07T06:58:19;30.70;;;9.80;;
11185;SDS011;5649;52.422;13.754;2022-12-07T07:00:47;12.80;;;7.60;;
11185;SDS011;5649;52.422;13.754;2022-12-07T07:03:14;13.93;;;7.60;;
11185;SDS011;5649;52.422;13.754;2022-12-07T07:05:40;20.73;;;10.37;;
11185;SDS011;5649;52.422;13.754;2022-12-07T07:08:07;36.93;;;19.50;;
11185;SDS011;5649;52.422;13.754;2022-12-07T07:10:33;50.33;;;24.13;;
11185;SDS011;5649;52.422;13.754;2022-12-07T07:12:59;24.17;;;13.20;;
11185;SDS011;5649;52.422;13.754;2022-12-07T07:15:25;43.10;;;26.40;;
11185;SDS011;5649;52.422;13.754;2022-12-07T07:17:51;26.80;;;16.47;;
11185;SDS011;5649;52.422;13.754;2022-12-07T07:20:17;35.97;;;23.23;;
11185;SDS011;5649;52.422;13.754;2022-12-07T07:22:43;42.60;;;25.87;;
11185;SDS011;5649;52.422;13.754;2022-12-07T07:25:09;41.23;;;22.17;;
11185;SDS011;5649;52.422;13.754;2022-12-07T07:27:35;69.30;;;32.40;;
11185;SDS011;5649;52.422;13.754;2022-12-07T07:30:02;40.40;;;22.73;;
11185;SDS011;5649;52.422;13.754;2022-12-07T07:32:28;25.43;;;14.20;;
11185;SDS011;5649;52.422;13.754;2022-12-07T07:34:54;21.40;;;14.70;;
11185;SDS011;5649;52.422;13.754;2022-12-07T07:37:20;14.87;;;9.53;;
11185;SDS011;5649;52.422;13.754;2022-12-07T07:39:46;16.27;;;9.67;;
11185;SDS011;5649;52.422;13.754;2022-12-07T07:42:12;15.50;;;8.60;;
11185;SDS011;5649;52.422;13.754;2022-12-07T07:44:39;26.40;;;13.30;;
11185;SDS011;5649;52.422;13.754;2022-12-07T07:47:05;21.33;;;10.17;;
11185;SDS011;5649;52.422;13.754;2022-12-07T07:49:31;15.83;;;8.60;;
11185;SDS011;5649;52.422;13.754;2022-12-07T07:51:57;12.47;;;7.17;;
11185;SDS011;5649;52.422;13.754;2022-12-07T07:54:23;22.07;;;11.40;;
11185;SDS011;5649;52.422;13.754;2022-12-07T07:56:50;19.70;;;9.23;;
11185;SDS011;5649;52.422;13.754;2022-12-07T07:59:16;11.70;;;7.40;;
11185;SDS011;5649;52.422;13.754;2022-12-07T08:01:42;10.50;;;6.17;;
11185;SDS011;5649;52.422;13.754;2022-12-07T08:04:08;12.67;;;7.67;;
11185;SDS011;5649;52.422;13.754;2022-12-07T08:06:34;20.30;;;7.90;;
11185;SDS011;5649;52.422;13.754;2022-12-07T08:09:00;9.93;;;5.93;;
11185;SDS011;5649;52.422;13.754;2022-12-07T08:11:26;14.93;;;6.80;;
11185;SDS011;5649;52.422;13.754;2022-12-07T08:13:52;12.97;;;5.83;;
11185;SDS011;5649;52.422;13.754;2022-12-07T08:16:18;14.40;;;7.17;;
11185;SDS011;5649;52.422;13.754;2022-12-07T08:18:44;12.30;;;5.73;;
11185;SDS011;5649;52.422;13.754;2022-12-07T08:21:11;12.13;;;6.13;;
11185;SDS011;5649;52.422;13.754;2022-12-07T08:23:38;14.20;;;5.30;;
11185;SDS011;5649;52.422;13.754;2022-12-07T08:26:05;14.97;;;5.67;;
11185;SDS011;5649;52.422;13.754;2022-12-07T08:28:31;15.33;;;6.20;;
11185;SDS011;5649;52.422;13.754;2022-12-07T08:31:01;14.93;;;6.33;;
11185;SDS011;5649;52.422;13.754;2022-12-07T08:33:27;11.97;;;5.87;;
11185;SDS011;5649;52.422;13.754;2022-12-07T08:35:53;27.73;;;5.70;;
11185;SDS011;5649;52.422;13.754;2022-12-07T08:38:19;15.93;;;4.80;;
11185;SDS011;5649;52.422;13.754;2022-12-07T08:40:52;14.30;;;4.83;;
11185;SDS011;5649;52.422;13.754;2022-12-07T08:43:18;6.07;;;4.50;;
11185;SDS011;5649;52.422;13.754;2022-12-07T08:45:44;6.10;;;3.80;;
11185;SDS011;5649;52.422;13.754;2022-12-07T08:48:11;6.67;;;4.00;;
11185;SDS011;5649;52.422;13.754;2022-12-07T08:50:39;7.07;;;3.90;;
11185;SDS011;5649;52.422;13.754;2022-12-07T08:53:05;10.53;;;4.07;;
11185;SDS011;5649;52.422;13.754;2022-12-07T08:55:31;5.97;;;3.23;;
11185;SDS011;5649;52.422;13.754;2022-12-07T08:57:58;4.67;;;3.40;;
11185;SDS011;5649;52.422;13.754;2022-12-07T09:00:25;6.57;;;2.97;;
11185;SDS011;5649;52.422;13.754;2022-12-07T09:02:51;5.70;;;3.20;;
11185;SDS011;5649;52.422;13.754;2022-12-07T09:05:17;3.00;;;2.73;;
11185;SDS011;5649;52.422;13.754;2022-12-07T09:07:44;4.07;;;2.73;;
11185;SDS011;5649;52.422;13.754;2022-12-07T09:10:11;3.30;;;2.43;;
11185;SDS011;5649;52.422;13.754;2022-12-07T09:12:37;3.53;;;2.70;;
11185;SDS011;5649;52.422;13.754;2022-12-07T09:15:04;2.90;;;2.10;;
11185;SDS011;5649;52.422;13.754;2022-12-07T09:17:31;11.37;;;2.37;;
11185;SDS011;5649;52.422;13.754;2022-12-07T09:19:57;1.63;;;1.53;;
11185;SDS011;5649;52.422;13.754;2022-12-07T09:22:23;1.53;;;1.43;;
11185;SDS011;5649;52.422;13.754;2022-12-07T09:24:49;4.27;;;1.93;;
11185;SDS011;5649;52.422;13.754;2022-12-07T09:27:15;1.47;;;1.20;;
11185;SDS011;5649;52.422;13.754;2022-12-07T09:29:42;1.80;;;1.20;;
11185;SDS011;5649;52.422;13.754;2022-12-07T09:32:08;0.90;;;0.90;;
11185;SDS011;5649;52.422;13.754;2022-12-07T09:34:34;1.23;;;1.13;;
11185;SDS011;5649;52.422;13.754;2022-12-07T09:37:01;1.33;;;1.23;;
11185;SDS011;5649;52.422;13.754;2022-12-07T09:39:28;3.20;;;1.40;;
11185;SDS011;5649;52.422;13.754;2022-12-07T09:41:54;2.00;;;1.03;;
11185;SDS011;5649;52.422;13.754;2022-12-07T09:44:23;1.57;;;1.00;;
11185;SDS011;5649;52.422;13.754;2022-12-07T09:46:49;0.87;;;0.87;;
11185;SDS011;5649;52.422;13.754;2022-12-07T09:49:18;1.30;;;1.20;;
11185;SDS011;5649;52.422;13.754;2022-12-07T09:51:45;1.43;;;1.00;;
11185;SDS011;5649;52.422;13.754;2022-12-07T09:54:12;4.00;;;1.07;;
11185;SDS011;5649;52.422;13.754;2022-12-07T09:56:39;1.50;;;0.90;;
11185;SDS011;5649;52.422;13.754;2022-12-07T09:59:05;1.50;;;1.30;;
11185;SDS011;5649;52.422;13.754;2022-12-07T10:01:31;1.10;;;1.03;;
11185;SDS011;5649;52.422;13.754;2022-12-07T10:04:11;0.80;;;0.80;;
11185;SDS011;5649;52.422;13.754;2022-12-07T10:06:39;1.77;;;1.10;;
11185;SDS011;5649;52.422;13.754;2022-12-07T10:09:09;0.70;;;0.70;;
11185;SDS011;5649;52.422;13.754;2022-12-07T10:11:35;1.40;;;1.40;;
11185;SDS011;5649;52.422;13.754;2022-12-07T10:14:21;2.00;;;1.07;;
11185;SDS011;5649;52.422;13.754;2022-12-07T10:16:47;2.03;;;1.33;;
11185;SDS011;5649;52.422;13.754;2022-12-07T10:19:17;1.03;;;1.03;;
11185;SDS011;5649;52.422;13.754;2022-12-07T10:22:04;2.87;;;1.70;;
11185;SDS011;5649;52.422;13.754;2022-12-07T10:24:31;1.10;;;1.00;;
11185;SDS011;5649;52.422;13.754;2022-12-07T10:26:57;1.50;;;1.40;;
11185;SDS011;5649;52.422;13.754;2022-12-07T10:29:26;1.30;;;1.20;;
11185;SDS011;5649;52.422;13.754;2022-12-07T10:32:23;2.60;;;1.27;;
11185;SDS011;5649;52.422;13.754;2022-12-07T10:34:51;0.90;;;0.90;;
11185;SDS011;5649;52.422;13.754;2022-12-07T10:37:40;1.40;;;1.23;;
11185;SDS011;5649;52.422;13.754;2022-12-07T10:40:23;0.80;;;0.80;;
11185;SDS011;5649;52.422;13.754;2022-12-07T10:43:00;1.20;;;0.80;;
11185;SDS011;5649;52.422;13.754;2022-12-07T10:45:26;1.33;;;1.23;;
11185;SDS011;5649;52.422;13.754;2022-12-07T10:53:21;0.80;;;0.80;;
11185;SDS011;5649;52.422;13.754;2022-12-07T11:09:00;0.90;;;0.90;;
11185;SDS011;5649;52.422;13.754;2022-12-07T11:37:18;0.93;;;0.93;;
11185;SDS011;5649;52.422;13.754;2022-12-07T11:39:50;1.23;;;0.90;;
11185;SDS011;5649;52.422;13.754;2022-12-07T11:42:30;2.03;;;1.03;;
11185;SDS011;5649;52.422;13.754;2022-12-07T11:45:00;0.87;;;0.87;;
11185;SDS011;5649;52.422;13.754;2022-12-07T11:55:39;1.00;;;1.00;;
11185;SDS011;5649;52.422;13.754;2022-12-07T11:58:20;3.23;;;1.83;;
11185;SDS011;5649;52.422;13.754;2022-12-07T12:00:49;4.53;;;1.53;;
11185;SDS011;5649;52.422;13.754;2022-12-07T12:03:19;1.10;;;1.00;;
11185;SDS011;5649;52.422;13.754;2022-12-07T12:05:48;1.00;;;1.00;;
11185;SDS011;5649;52.422;13.754;2022-12-07T12:08:16;1.20;;;1.20;;
11185;SDS011;5649;52.422;13.754;2022-12-07T12:10:58;2.93;;;2.27;;
11185;SDS011;5649;52.422;13.754;2022-12-07T12:21:26;0.90;;;0.90;;
11185;SDS011;5649;52.422;13.754;2022-12-07T12:23:57;4.50;;;1.90;;
11185;SDS011;5649;52.422;13.754;2022-12-07T12:26:26;1.77;;;1.60;;
11185;SDS011;5649;52.422;13.754;2022-12-07T12:28:59;1.47;;;1.37;;
11185;SDS011;5649;52.422;13.754;2022-12-07T12:33:56;9.60;;;2.10;;
11185;SDS011;5649;52.422;13.754;2022-12-07T12:36:26;3.13;;;1.63;;
11185;SDS011;5649;52.422;13.754;2022-12-07T12:51:41;2.87;;;1.53;;
11185;SDS011;5649;52.422;13.754;2022-12-07T12:54:12;4.50;;;1.47;;
11185;SDS011;5649;52.422;13.754;2022-12-07T12:56:45;1.20;;;1.10;;
11185;SDS011;5649;52.422;13.754;2022-12-07T13:01:50;7.67;;;2.03;;
11185;SDS011;5649;52.422;13.754;2022-12-07T13:04:28;1.70;;;1.60;;
11185;SDS011;5649;52.422;13.754;2022-12-07T13:06:55;2.73;;;1.90;;
11185;SDS011;5649;52.422;13.754;2022-12-07T13:11:55;13.13;;;1.40;;
11185;SDS011;5649;52.422;13.754;2022-12-07T13:17:05;2.40;;;1.20;;
11185;SDS011;5649;52.422;13.754;2022-12-07T13:27:40;2.90;;;1.30;;
11185;SDS011;5649;52.422;13.754;2022-12-07T13:30:16;3.13;;;1.57;;
11185;SDS011;5649;52.422;13.754;2022-12-07T13:32:42;1.53;;;0.83;;
11185;SDS011;5649;52.422;13.754;2022-12-07T13:37:54;2.70;;;1.10;;
11185;SDS011;5649;52.422;13.754;2022-12-07T13:40:21;17.37;;;2.20;;
11185;SDS011;5649;52.422;13.754;2022-12-07T13:42:47;7.10;;;1.27;;
11185;SDS011;5649;52.422;13.754;2022-12-07T13:45:21;1.70;;;1.20;;
11185;SDS011;5649;52.422;13.754;2022-12-07T13:48:08;1.23;;;1.00;;
11185;SDS011;5649;52.422;13.754;2022-12-07T13:50:36;2.17;;;0.80;;
11185;SDS011;5649;52.422;13.754;2022-12-07T13:53:07;1.40;;;1.30;;
11185;SDS011;5649;52.422;13.754;2022-12-07T13:55:37;8.30;;;1.10;;
11185;SDS011;5649;52.422;13.754;2022-12-07T13:58:10;2.70;;;1.17;;
11185;SDS011;5649;52.422;13.754;2022-12-07T14:00:36;1.83;;;1.30;;
11185;SDS011;5649;52.422;13.754;2022-12-07T14:03:03;8.53;;;0.90;;
11185;SDS011;5649;52.422;13.754;2022-12-07T14:05:34;1.17;;;1.03;;
11185;SDS011;5649;52.422;13.754;2022-12-07T14:08:02;1.40;;;1.20;;
11185;SDS011;5649;52.422;13.754;2022-12-07T14:10:30;1.63;;;1.00;;
11185;SDS011;5649;52.422;13.754;2022-12-07T14:12:57;3.30;;;1.30;;
11185;SDS011;5649;52.422;13.754;2022-12-07T14:15:30;3.40;;;1.10;;
11185;SDS011;5649;52.422;13.754;2022-12-07T14:17:58;5.80;;;1.10;;
11185;SDS011;5649;52.422;13.754;2022-12-07T14:20:46;1.93;;;1.30;;
11185;SDS011;5649;52.422;13.754;2022-12-07T14:23:25;1.93;;;0.83;;
11185;SDS011;5649;52.422;13.754;2022-12-07T14:25:52;3.60;;;0.97;;
11185;SDS011;5649;52.422;13.754;2022-12-07T14:28:51;2.90;;;1.20;;
11185;SDS011;5649;52.422;13.754;2022-12-07T14:33:36;2.07;;;1.00;;
11185;SDS011;5649;52.422;13.754;2022-12-07T14:36:02;2.27;;;1.10;;
11185;SDS011;5649;52.422;13.754;2022-12-07T14:38:28;0.97;;;0.90;;
11185;SDS011;5649;52.422;13.754;2022-12-07T14:40:55;4.53;;;1.27;;
11185;SDS011;5649;52.422;13.754;2022-12-07T14:43:44;1.03;;;0.90;;
11185;SDS011;5649;52.422;13.754;2022-12-07T14:46:10;2.27;;;1.30;;
11185;SDS011;5649;52.422;13.754;2022-12-07T14:48:36;4.10;;;1.93;;
11185;SDS011;5649;52.422;13.754;2022-12-07T14:51:02;3.07;;;1.07;;
11185;SDS011;5649;52.422;13.754;2022-12-07T14:53:31;1.00;;;0.87;;
11185;SDS011;5649;52.422;13.754;2022-12-07T14:55:57;4.90;;;1.30;;
11185;SDS011;5649;52.422;13.754;2022-12-07T14:58:23;4.67;;;1.67;;
11185;SDS011;5649;52.422;13.754;2022-12-07T15:00:49;3.53;;;1.10;;
11185;SDS011;5649;52.422;13.754;2022-12-07T15:03:15;1.37;;;1.00;;
11185;SDS011;5649;52.422;13.754;2022-12-07T15:05:41;7.90;;;1.57;;
11185;SDS011;5649;52.422;13.754;2022-12-07T15:08:08;1.90;;;1.20;;
11185;SDS011;5649;52.422;13.754;2022-12-07T15:10:35;1.57;;;1.10;;
11185;SDS011;5649;52.422;13.754;2022-12-07T15:13:03;1.00;;;0.90;;
11185;SDS011;5649;52.422;13.754;2022-12-07T15:15:49;12.47;;;1.70;;
11185;SDS011;5649;52.422;13.754;2022-12-07T15:18:16;6.07;;;1.60;;
11185;SDS011;5649;52.422;13.754;2022-12-07T15:20:42;3.37;;;1.47;;
11185;SDS011;5649;52.422;13.754;2022-12-07T15:23:08;2.80;;;1.40;;
11185;SDS011;5649;52.422;13.754;2022-12-07T15:25:35;6.50;;;1.73;;
11185;SDS011;5649;52.422;13.754;2022-12-07T15:28:01;3.17;;;1.20;;
11185;SDS011;5649;52.422;13.754;2022-12-07T15:30:27;5.50;;;1.10;;
11185;SDS011;5649;52.422;13.754;2022-12-07T15:32:53;10.87;;;1.10;;
11185;SDS011;5649;52.422;13.754;2022-12-07T15:35:20;0.67;;;0.67;;
11185;SDS011;5649;52.422;13.754;2022-12-07T15:37:46;1.13;;;1.00;;
11185;SDS011;5649;52.422;13.754;2022-12-07T15:40:12;7.37;;;1.47;;
11185;SDS011;5649;52.422;13.754;2022-12-07T15:42:39;6.00;;;1.63;;
11185;SDS011;5649;52.422;13.754;2022-12-07T15:45:06;1.97;;;0.97;;
11185;SDS011;5649;52.422;13.754;2022-12-07T15:47:36;0.90;;;0.90;;
11185;SDS011;5649;52.422;13.754;2022-12-07T15:50:03;3.17;;;1.77;;
11185;SDS011;5649;52.422;13.754;2022-12-07T15:52:30;7.03;;;0.93;;
11185;SDS011;5649;52.422;13.754;2022-12-07T15:54:56;2.33;;;0.97;;
11185;SDS011;5649;52.422;13.754;2022-12-07T15:57:22;3.40;;;1.50;;
11185;SDS011;5649;52.422;13.754;2022-12-07T15:59:48;2.63;;;1.20;;
11185;SDS011;5649;52.422;13.754;2022-12-07T16:02:14;15.43;;;3.17;;
11185;SDS011;5649;52.422;13.754;2022-12-07T16:04:40;5.40;;;1.50;;
11185;SDS011;5649;52.422;13.754;2022-12-07T16:07:06;12.77;;;2.20;;
11185;SDS011;5649;52.422;13.754;2022-12-07T16:09:32;4.63;;;1.37;;
11185;SDS011;5649;52.422;13.754;2022-12-07T16:11:58;1.80;;;0.87;;
11185;SDS011;5649;52.422;13.754;2022-12-07T16:14:24;2.47;;;1.37;;
11185;SDS011;5649;52.422;13.754;2022-12-07T16:16:50;4.23;;;2.00;;
11185;SDS011;5649;52.422;13.754;2022-12-07T16:19:16;6.83;;;1.43;;
11185;SDS011;5649;52.422;13.754;2022-12-07T16:21:42;4.73;;;1.60;;
11185;SDS011;5649;52.422;13.754;2022-12-07T16:24:09;5.13;;;1.40;;
11185;SDS011;5649;52.422;13.754;2022-12-07T16:26:40;1.33;;;1.17;;
11185;SDS011;5649;52.422;13.754;2022-12-07T16:29:06;6.90;;;1.83;;
11185;SDS011;5649;52.422;13.754;2022-12-07T16:31:32;2.33;;;1.30;;
11185;SDS011;5649;52.422;13.754;2022-12-07T16:33:58;2.20;;;1.27;;
11185;SDS011;5649;52.422;13.754;2022-12-07T16:36:25;7.77;;;1.43;;
11185;SDS011;5649;52.422;13.754;2022-12-07T16:38:52;1.13;;;1.07;;
11185;SDS011;5649;52.422;13.754;2022-12-07T16:41:18;2.00;;;1.47;;
11185;SDS011;5649;52.422;13.754;2022-12-07T16:43:45;1.37;;;1.27;;
11185;SDS011;5649;52.422;13.754;2022-12-07T16:46:11;4.70;;;1.63;;
11185;SDS011;5649;52.422;13.754;2022-12-07T16:48:38;2.40;;;0.93;;
11185;SDS011;5649;52.422;13.754;2022-12-07T16:51:05;6.13;;;1.50;;
11185;SDS011;5649;52.422;13.754;2022-12-07T16:53:31;11.73;;;1.93;;
11185;SDS011;5649;52.422;13.754;2022-12-07T16:55:57;4.97;;;0.97;;